Time;durP1;ratioP1;P1;durP2;ratioP2;P2;SDS_P1;SDS_P2;PMS_P1;PMS_P2;Temp;Humidity;BMP_temperature;BMP_pressure;BME280_temperature;BME280_humidity;BME280_pressure;Samples;Min_cycle;Max_cycle;Signal;HPM_P1;HPM_P2
2022/01/18 00:00:54;;;;;;;15.27;3.67;;;4.90;99.90;;;;;;6213637;23;20170;-88
2022/01/18 00:03:23;;;;;;;18.27;4.03;;;4.90;99.90;;;;;;6213012;23;20193;-89
2022/01/18 00:05:50;;;;;;;14.50;3.50;;;4.80;99.90;;;;;;6213677;23;20170;-85
2022/01/18 00:08:18;;;;;;;25.90;5.90;;;4.80;99.90;;;;;;6213185;23;20170;-87
2022/01/18 00:10:47;;;;;;;20.53;4.37;;;4.80;99.90;;;;;;6211946;23;20178;-87
2022/01/18 00:13:36;;;;;;;11.70;3.10;;;4.70;99.90;;;;;;6212443;23;20178;-88
2022/01/18 00:16:12;;;;;;;12.70;2.40;;;4.70;99.90;;;;;;6205011;23;20170;-90
2022/01/18 00:18:41;;;;;;;13.97;2.80;;;4.70;99.90;;;;;;6212973;23;20174;-88
2022/01/18 00:21:22;;;;;;;12.57;3.03;;;4.70;99.90;;;;;;6213603;23;20181;-88
2022/01/18 00:23:51;;;;;;;10.73;2.90;;;4.60;99.90;;;;;;6213626;23;20166;-87
2022/01/18 00:26:19;;;;;;;15.97;2.63;;;4.60;99.90;;;;;;6212758;23;20174;-88
2022/01/18 00:28:50;;;;;;;7.40;2.60;;;4.50;99.90;;;;;;6212217;23;20174;-88
2022/01/18 00:34:07;;;;;;;14.57;2.53;;;4.40;99.90;;;;;;6212743;23;20185;-88
2022/01/18 00:36:40;;;;;;;10.50;2.80;;;4.40;99.90;;;;;;6213065;23;20209;-87
2022/01/18 00:39:09;;;;;;;15.67;3.87;;;4.40;99.90;;;;;;6212957;23;20170;-88
2022/01/18 00:41:37;;;;;;;13.10;3.40;;;4.40;99.90;;;;;;6212975;23;20166;-88
2022/01/18 00:44:07;;;;;;;20.67;3.90;;;4.50;99.90;;;;;;6212617;23;20170;-86
2022/01/18 00:46:34;;;;;;;18.90;3.13;;;4.50;99.90;;;;;;6213272;23;20170;-89
2022/01/18 00:49:04;;;;;;;18.07;3.23;;;4.40;99.90;;;;;;6212821;23;20437;-88
2022/01/18 00:51:34;;;;;;;23.33;4.30;;;4.40;99.90;;;;;;6212003;23;20170;-88
2022/01/18 00:54:00;;;;;;;19.07;3.70;;;4.40;99.90;;;;;;6212707;23;20205;-88
2022/01/18 00:56:30;;;;;;;13.03;3.83;;;4.40;99.90;;;;;;6211070;23;20221;-88
2022/01/18 00:58:58;;;;;;;13.50;3.33;;;4.40;99.90;;;;;;6213788;23;20178;-87
2022/01/18 01:01:27;;;;;;;16.10;3.10;;;4.40;99.90;;;;;;6212315;23;20197;-87
2022/01/18 01:03:58;;;;;;;16.20;3.20;;;4.40;99.90;;;;;;6213038;23;20178;-87
2022/01/18 01:06:26;;;;;;;15.40;3.00;;;4.40;99.90;;;;;;6212803;23;20463;-87
2022/01/18 01:08:53;;;;;;;17.47;3.80;;;4.40;99.90;;;;;;6212431;23;20170;-87
2022/01/18 01:11:21;;;;;;;12.50;3.20;;;4.40;99.90;;;;;;6213158;23;20166;-89
2022/01/18 01:13:50;;;;;;;14.70;3.27;;;4.50;99.90;;;;;;6212540;23;20170;-89
2022/01/18 01:19:14;;;;;;;18.57;3.60;;;4.50;99.90;;;;;;6187915;23;20891;-89
2022/01/18 01:33:28;;;;;;;11.53;3.37;;;4.50;99.90;;;;;;6213220;23;20209;-89
2022/01/18 01:36:16;;;;;;;15.50;3.00;;;4.40;99.90;;;;;;6213000;23;20194;-88
2022/01/18 01:42:00;;;;;;;14.17;3.13;;;4.30;99.90;;;;;;6219700;23;20570;-88
2022/01/18 01:44:39;;;;;;;20.13;3.83;;;4.20;99.90;;;;;;6214966;23;20167;-89
2022/01/18 01:47:07;;;;;;;10.43;2.93;;;4.10;99.90;;;;;;6212676;23;20658;-89
2022/01/18 01:49:34;;;;;;;13.40;3.00;;;4.10;99.90;;;;;;6212252;23;20173;-89
2022/01/18 01:52:05;;;;;;;17.77;4.70;;;4.00;99.90;;;;;;6212686;23;20170;-89
2022/01/18 01:54:33;;;;;;;20.43;3.60;;;4.00;99.90;;;;;;6211624;23;20539;-86
2022/01/18 01:57:00;;;;;;;25.13;4.53;;;3.90;99.90;;;;;;6212825;23;20208;-89
2022/01/18 01:59:27;;;;;;;15.70;3.80;;;3.90;99.90;;;;;;6212243;23;20170;-88
2022/01/18 02:01:53;;;;;;;12.23;3.47;;;3.90;99.90;;;;;;6213057;23;20181;-90
2022/01/18 02:04:20;;;;;;;13.60;3.30;;;3.90;99.90;;;;;;6212307;23;20170;-89
2022/01/18 02:06:47;;;;;;;14.07;3.40;;;3.90;99.90;;;;;;6211838;23;20180;-87
2022/01/18 02:09:14;;;;;;;11.50;2.57;;;3.80;99.90;;;;;;6212653;23;20203;-87
2022/01/18 02:11:43;;;;;;;13.33;2.80;;;3.80;99.90;;;;;;6212003;23;20174;-88
2022/01/18 02:14:16;;;;;;;14.87;3.40;;;3.80;99.90;;;;;;6212767;23;20166;-89
2022/01/18 02:22:15;;;;;;;11.30;3.20;;;3.70;99.90;;;;;;6212329;23;20913;-89
2022/01/18 02:24:42;;;;;;;15.00;3.27;;;3.70;99.90;;;;;;6212793;23;20174;-89
2022/01/18 02:27:09;;;;;;;15.03;4.13;;;3.70;99.90;;;;;;6212696;23;20178;-89
2022/01/18 02:29:36;;;;;;;17.37;5.33;;;3.70;99.90;;;;;;6212393;23;20177;-90
2022/01/18 02:32:03;;;;;;;16.87;4.80;;;3.60;99.90;;;;;;6212864;23;20173;-87
2022/01/18 02:34:30;;;;;;;14.80;3.57;;;3.60;99.90;;;;;;6211915;23;20638;-89
2022/01/18 02:36:58;;;;;;;10.97;3.67;;;3.60;99.90;;;;;;6212052;23;20251;-87
2022/01/18 02:39:28;;;;;;;15.43;3.70;;;3.60;99.90;;;;;;6212283;23;20170;-87
2022/01/18 02:41:58;;;;;;;18.87;4.10;;;3.60;99.90;;;;;;6211865;23;20174;-90
2022/01/18 02:44:25;;;;;;;13.13;3.40;;;3.60;99.90;;;;;;6212622;23;20170;-88
2022/01/18 02:46:53;;;;;;;10.27;2.37;;;3.60;99.90;;;;;;6212434;23;20176;-88
2022/01/18 02:49:19;;;;;;;13.37;2.83;;;3.60;99.90;;;;;;6211557;23;20193;-89
2022/01/18 02:51:46;;;;;;;18.07;4.67;;;3.70;99.90;;;;;;6200192;23;20170;-88
2022/01/18 02:54:17;;;;;;;16.53;3.30;;;3.70;99.90;;;;;;6211979;23;20170;-89
2022/01/18 02:56:48;;;;;;;21.27;3.90;;;3.90;99.90;;;;;;6213009;23;20212;-89
2022/01/18 02:59:21;;;;;;;13.40;3.77;;;4.00;99.90;;;;;;6209274;23;20174;-89
2022/01/18 03:04:33;;;;;;;12.43;2.53;;;4.10;99.90;;;;;;6216381;23;20162;-88
2022/01/18 03:07:00;;;;;;;16.10;2.87;;;4.20;99.90;;;;;;6216399;23;20174;-88
2022/01/18 03:09:27;;;;;;;10.63;2.80;;;4.20;99.90;;;;;;6218379;23;20182;-86
2022/01/18 03:11:55;;;;;;;20.03;3.77;;;4.20;99.90;;;;;;6217885;23;20372;-89
2022/01/18 03:14:22;;;;;;;13.27;3.07;;;4.20;99.90;;;;;;6214754;23;20544;-86
2022/01/18 03:16:49;;;;;;;20.13;4.03;;;4.20;99.90;;;;;;6214405;23;20558;-88
2022/01/18 03:19:16;;;;;;;11.87;2.40;;;4.10;99.90;;;;;;6215113;23;20420;-88
2022/01/18 03:21:43;;;;;;;9.13;2.23;;;4.10;99.90;;;;;;6213882;23;20815;-90
2022/01/18 03:24:18;;;;;;;12.13;2.90;;;4.10;99.90;;;;;;6214203;23;20166;-89
2022/01/18 03:29:31;;;;;;;12.77;2.23;;;4.00;99.90;;;;;;6212752;23;20169;-89
2022/01/18 03:31:58;;;;;;;8.43;1.90;;;4.00;99.90;;;;;;6211810;23;20166;-89
2022/01/18 03:34:26;;;;;;;23.03;3.23;;;3.90;99.90;;;;;;6210681;23;20170;-89
2022/01/18 03:36:53;;;;;;;10.80;2.97;;;3.80;99.90;;;;;;6213007;23;20227;-89
2022/01/18 03:39:20;;;;;;;16.40;2.87;;;3.70;99.90;;;;;;6213824;23;20198;-89
2022/01/18 03:41:53;;;;;;;14.63;3.00;;;3.70;99.90;;;;;;6214051;23;20184;-90
2022/01/18 03:44:21;;;;;;;9.03;2.47;;;3.60;99.90;;;;;;6213604;23;20481;-89
2022/01/18 03:46:50;;;;;;;5.53;2.17;;;3.50;99.90;;;;;;6214464;23;20236;-89
2022/01/18 03:49:17;;;;;;;10.20;3.10;;;3.50;99.90;;;;;;6214135;23;20170;-89
2022/01/18 03:51:44;;;;;;;13.20;3.87;;;3.40;99.90;;;;;;6213556;23;20166;-89
2022/01/18 03:54:13;;;;;;;8.93;2.27;;;3.40;99.90;;;;;;6214362;23;20181;-88
2022/01/18 03:56:40;;;;;;;7.47;2.20;;;3.40;99.90;;;;;;6212879;23;20202;-89
2022/01/18 03:59:07;;;;;;;11.07;2.20;;;3.30;99.90;;;;;;6213823;23;20192;-87
2022/01/18 04:01:33;;;;;;;7.43;2.43;;;3.30;99.90;;;;;;6213989;23;20535;-90
2022/01/18 04:04:02;;;;;;;18.33;3.27;;;3.30;99.90;;;;;;6213447;23;20174;-89
2022/01/18 04:06:28;;;;;;;11.00;2.60;;;3.20;99.90;;;;;;6213021;23;20241;-89
2022/01/18 04:08:55;;;;;;;12.43;2.50;;;3.20;99.90;;;;;;6214151;23;20242;-88
2022/01/18 04:11:22;;;;;;;13.67;2.90;;;3.20;99.90;;;;;;6213127;23;20178;-89
2022/01/18 04:13:49;;;;;;;24.90;4.00;;;3.20;99.90;;;;;;6187675;23;20608;-89
2022/01/18 04:16:16;;;;;;;13.07;2.87;;;3.20;99.90;;;;;;6214092;23;20193;-88
2022/01/18 04:18:52;;;;;;;10.50;2.93;;;3.10;99.90;;;;;;6213587;23;20225;-90
2022/01/18 04:27:01;;;;;;;16.23;3.60;;;3.10;99.90;;;;;;6214066;23;20200;-89
2022/01/18 04:29:28;;;;;;;18.20;3.00;;;3.00;99.90;;;;;;6214472;23;20178;-89
2022/01/18 04:31:55;;;;;;;12.47;3.63;;;3.00;99.90;;;;;;6210758;23;20625;-90
2022/01/18 04:34:21;;;;;;;21.67;4.63;;;3.00;99.90;;;;;;6221021;23;20162;-89
2022/01/18 04:36:51;;;;;;;12.23;4.20;;;2.90;99.90;;;;;;6225046;23;20265;-88
2022/01/18 04:39:17;;;;;;;24.07;4.40;;;2.90;99.90;;;;;;6224912;23;20212;-87
2022/01/18 04:41:46;;;;;;;17.53;4.80;;;2.90;99.90;;;;;;6222762;23;20170;-87
2022/01/18 04:49:48;;;;;;;8.07;3.23;;;2.80;99.90;;;;;;6214028;23;20169;-89
2022/01/18 04:52:17;;;;;;;8.57;3.13;;;2.80;99.90;;;;;;6213883;23;20165;-89
2022/01/18 04:54:46;;;;;;;7.10;4.23;;;2.80;99.90;;;;;;6213518;23;20548;-89
2022/01/18 04:59:57;;;;;;;5.73;3.27;;;2.70;99.90;;;;;;6213339;23;20168;-90
2022/01/18 05:02:24;;;;;;;10.83;4.30;;;2.70;99.90;;;;;;6213396;23;20177;-90
2022/01/18 05:04:51;;;;;;;8.97;3.67;;;2.70;99.90;;;;;;6213385;23;20465;-89
2022/01/18 05:07:20;;;;;;;7.97;3.37;;;2.70;99.90;;;;;;6213410;23;20590;-89
2022/01/18 05:09:50;;;;;;;10.20;2.90;;;2.70;99.90;;;;;;6212913;23;20367;-90
2022/01/18 05:12:26;;;;;;;9.70;3.37;;;2.60;99.90;;;;;;6213795;23;20253;-91
2022/01/18 05:14:54;;;;;;;5.97;2.83;;;2.60;99.90;;;;;;6213608;23;20185;-89
2022/01/18 05:17:37;;;;;;;7.30;3.27;;;2.60;99.90;;;;;;6214402;23;20170;-89
2022/01/18 05:20:36;;;;;;;7.60;2.90;;;2.60;99.90;;;;;;6213720;23;20193;-88
2022/01/18 05:23:04;;;;;;;7.30;3.17;;;2.60;99.90;;;;;;6215343;23;20626;-90
2022/01/18 05:25:31;;;;;;;10.07;3.30;;;2.60;99.90;;;;;;6216025;23;20221;-91
2022/01/18 05:27:59;;;;;;;8.53;3.20;;;2.60;99.90;;;;;;6228576;23;20170;-91
2022/01/18 05:30:27;;;;;;;7.70;3.37;;;2.60;99.90;;;;;;6223615;23;20517;-90
2022/01/18 05:32:54;;;;;;;7.50;3.07;;;2.60;99.90;;;;;;6213586;23;20174;-91
2022/01/18 05:35:23;;;;;;;6.67;2.87;;;2.60;99.90;;;;;;6213526;23;20186;-90
2022/01/18 05:37:50;;;;;;;9.43;2.90;;;2.50;99.90;;;;;;6212215;23;20625;-90
2022/01/18 05:40:20;;;;;;;7.00;3.10;;;2.50;99.90;;;;;;6212483;23;20170;-90
2022/01/18 05:42:47;;;;;;;5.67;3.27;;;2.50;99.90;;;;;;6213346;23;20555;-90
2022/01/18 05:45:14;;;;;;;5.00;2.30;;;2.50;99.90;;;;;;6213294;23;20177;-89
2022/01/18 05:47:42;;;;;;;4.67;2.60;;;2.50;99.90;;;;;;6213552;23;20173;-86
2022/01/18 05:50:12;;;;;;;6.43;2.47;;;2.40;99.90;;;;;;6213285;23;20170;-90
2022/01/18 05:52:39;;;;;;;9.97;3.30;;;2.40;99.90;;;;;;6213212;23;20253;-89
2022/01/18 05:55:07;;;;;;;10.13;4.47;;;2.40;99.90;;;;;;6214483;23;20166;-89
2022/01/18 05:57:36;;;;;;;8.63;3.77;;;2.40;99.90;;;;;;6213559;23;20570;-89
2022/01/18 06:00:05;;;;;;;7.67;3.43;;;2.40;99.90;;;;;;6213719;23;20662;-90
2022/01/18 06:02:42;;;;;;;13.50;4.53;;;2.40;99.90;;;;;;6214189;23;20212;-90
2022/01/18 06:07:54;;;;;;;12.33;3.43;;;2.30;99.90;;;;;;6222604;23;20197;-89
2022/01/18 06:10:22;;;;;;;7.70;3.40;;;2.30;99.90;;;;;;6213442;23;20177;-91
2022/01/18 06:12:50;;;;;;;10.50;3.80;;;2.30;99.90;;;;;;6213276;23;20180;-90
2022/01/18 06:15:17;;;;;;;11.07;3.43;;;2.30;99.90;;;;;;6212918;23;20175;-89
2022/01/18 06:17:44;;;;;;;10.30;4.00;;;2.20;99.90;;;;;;6212792;23;20240;-90
2022/01/18 06:20:12;;;;;;;10.20;4.17;;;2.20;99.90;;;;;;6213048;23;20289;-90
2022/01/18 06:22:39;;;;;;;11.40;3.80;;;2.20;99.90;;;;;;6212892;23;20165;-89
2022/01/18 06:25:08;;;;;;;9.70;4.03;;;2.20;99.90;;;;;;6212930;23;20176;-90
2022/01/18 06:27:35;;;;;;;14.67;5.20;;;2.20;99.90;;;;;;6212598;23;20170;-90
2022/01/18 06:30:05;;;;;;;10.57;3.97;;;2.20;99.90;;;;;;6213495;23;20345;-90
2022/01/18 06:32:32;;;;;;;8.33;4.00;;;2.10;99.90;;;;;;6215270;23;20226;-89
2022/01/18 06:34:59;;;;;;;11.80;5.37;;;2.20;99.90;;;;;;6214453;23;20605;-90
2022/01/18 06:37:26;;;;;;;16.03;7.10;;;2.20;99.90;;;;;;6215070;23;20224;-91
2022/01/18 06:39:57;;;;;;;17.83;5.53;;;2.20;99.90;;;;;;6215007;23;20208;-91
2022/01/18 06:42:24;;;;;;;9.03;5.33;;;2.20;99.90;;;;;;6214132;23;20181;-90
2022/01/18 06:44:51;;;;;;;8.30;5.27;;;2.20;99.90;;;;;;6214569;23;20176;-92
2022/01/18 06:47:19;;;;;;;7.27;5.40;;;2.20;99.90;;;;;;6214991;23;20180;-91
2022/01/18 06:49:46;;;;;;;11.27;6.30;;;2.20;99.90;;;;;;6215254;23;20293;-92
2022/01/18 06:52:13;;;;;;;16.93;7.60;;;2.20;99.90;;;;;;6214692;23;20173;-90
2022/01/18 06:54:40;;;;;;;12.47;6.47;;;2.20;99.90;;;;;;6214274;23;20170;-89
2022/01/18 06:57:07;;;;;;;10.97;6.33;;;2.20;99.90;;;;;;6211097;23;20202;-90
2022/01/18 06:59:35;;;;;;;11.43;6.27;;;2.20;99.90;;;;;;6214434;23;20561;-90
2022/01/18 07:02:02;;;;;;;23.70;7.53;;;2.20;99.90;;;;;;6215032;23;20174;-89
2022/01/18 07:04:30;;;;;;;11.67;7.00;;;2.20;99.90;;;;;;6215145;23;20181;-90
2022/01/18 07:06:57;;;;;;;14.83;6.83;;;2.20;99.90;;;;;;6215894;23;20170;-89
2022/01/18 07:09:24;;;;;;;14.20;6.77;;;2.20;99.90;;;;;;6215562;23;20181;-90
2022/01/18 07:11:51;;;;;;;11.37;6.10;;;2.20;99.90;;;;;;6214750;23;20170;-89
2022/01/18 07:14:18;;;;;;;12.80;7.37;;;2.20;99.90;;;;;;6214103;23;20170;-90
2022/01/18 07:16:45;;;;;;;13.53;8.10;;;2.20;99.90;;;;;;6213958;23;20201;-92
2022/01/18 07:19:12;;;;;;;13.70;7.93;;;2.20;99.90;;;;;;6215650;23;20440;-89
2022/01/18 07:21:40;;;;;;;16.27;8.37;;;2.20;99.90;;;;;;6215210;23;20171;-90
2022/01/18 07:24:16;;;;;;;12.93;8.03;;;2.30;99.90;;;;;;6215595;23;20170;-91
2022/01/18 07:26:43;;;;;;;12.63;8.10;;;2.30;99.90;;;;;;6215778;23;20169;-91
2022/01/18 07:29:10;;;;;;;11.07;7.47;;;2.30;99.90;;;;;;6215383;23;20261;-92
2022/01/18 07:31:37;;;;;;;10.93;7.40;;;2.30;99.90;;;;;;6215728;23;20572;-91
2022/01/18 07:34:04;;;;;;;10.00;6.63;;;2.40;99.90;;;;;;6222222;23;20174;-91
2022/01/18 07:36:31;;;;;;;11.27;7.43;;;2.40;99.90;;;;;;6219181;23;20197;-91
2022/01/18 07:39:00;;;;;;;12.60;7.27;;;2.40;99.90;;;;;;6214548;23;20166;-92
2022/01/18 07:41:26;;;;;;;14.13;8.37;;;2.40;99.90;;;;;;6215278;23;20166;-91
2022/01/18 07:43:54;;;;;;;11.27;7.40;;;2.50;99.90;;;;;;6215024;23;20593;-91
2022/01/18 07:46:21;;;;;;;11.93;6.47;;;2.60;99.90;;;;;;6216854;23;20208;-90
2022/01/18 07:48:48;;;;;;;9.27;5.47;;;2.60;99.90;;;;;;6215446;23;20170;-91
2022/01/18 07:51:16;;;;;;;8.40;5.83;;;2.70;99.90;;;;;;6216160;23;20261;-91
2022/01/18 07:53:42;;;;;;;6.53;4.77;;;2.70;99.90;;;;;;6216579;23;20170;-89
2022/01/18 07:56:11;;;;;;;14.77;5.37;;;2.80;99.90;;;;;;6195488;23;20248;-88
2022/01/18 07:58:38;;;;;;;7.07;4.67;;;2.80;99.90;;;;;;6195644;23;20155;-90
2022/01/18 08:01:05;;;;;;;8.00;5.57;;;2.90;99.90;;;;;;6199476;23;20171;-87
2022/01/18 08:03:33;;;;;;;8.03;4.63;;;3.00;99.90;;;;;;6183587;23;20170;-89
2022/01/18 08:06:00;;;;;;;12.60;4.47;;;3.00;99.90;;;;;;6182793;23;20552;-89
2022/01/18 08:08:27;;;;;;;38.13;5.90;;;3.10;99.90;;;;;;6182245;23;20177;-87
2022/01/18 08:10:57;;;;;;;7.90;4.47;;;3.20;99.90;;;;;;6176618;23;20181;-90
2022/01/18 08:13:29;;;;;;;7.70;4.60;;;3.30;99.90;;;;;;6180565;23;20598;-90
2022/01/18 08:16:09;;;;;;;6.73;3.90;;;3.30;99.90;;;;;;6181247;23;20894;-89
2022/01/18 08:18:36;;;;;;;21.37;5.50;;;3.40;99.90;;;;;;6183129;23;20179;-91
2022/01/18 08:21:03;;;;;;;10.63;4.77;;;3.40;99.90;;;;;;6182707;23;20587;-90
2022/01/18 08:23:30;;;;;;;27.33;6.33;;;3.50;99.90;;;;;;6183282;23;20674;-89
2022/01/18 08:25:57;;;;;;;7.00;4.43;;;3.50;99.90;;;;;;6182910;23;20175;-87
2022/01/18 08:28:25;;;;;;;18.83;5.33;;;3.50;99.90;;;;;;6182413;23;20237;-88
2022/01/18 08:30:52;;;;;;;13.90;5.47;;;3.60;99.90;;;;;;6183435;23;20197;-91
2022/01/18 08:33:19;;;;;;;10.50;4.80;;;3.60;99.90;;;;;;6183587;23;20175;-91
2022/01/18 08:35:46;;;;;;;12.10;5.10;;;3.70;99.90;;;;;;6183211;23;20427;-89
2022/01/18 08:38:13;;;;;;;13.60;5.30;;;3.70;99.90;;;;;;6182886;23;20194;-90
2022/01/18 08:40:40;;;;;;;11.27;5.40;;;3.70;99.90;;;;;;6183407;23;20178;-89
2022/01/18 08:43:06;;;;;;;18.43;6.23;;;3.70;99.90;;;;;;6183057;23;20811;-89
2022/01/18 08:45:35;;;;;;;14.20;6.37;;;3.70;99.90;;;;;;6182820;23;20190;-90
2022/01/18 08:48:02;;;;;;;21.63;7.10;;;3.80;99.90;;;;;;6183124;23;20261;-91
2022/01/18 08:50:31;;;;;;;17.23;7.07;;;3.80;99.90;;;;;;6181919;23;20182;-88
2022/01/18 08:52:57;;;;;;;23.37;8.20;;;3.90;99.90;;;;;;6183040;23;20262;-90
2022/01/18 08:55:24;;;;;;;16.73;7.77;;;3.90;99.90;;;;;;6183362;23;20175;-90
2022/01/18 08:57:51;;;;;;;35.23;12.60;;;3.90;99.90;;;;;;6206824;23;20205;-88
2022/01/18 09:00:19;;;;;;;29.43;12.67;;;4.00;99.90;;;;;;6211834;23;20188;-92
2022/01/18 09:02:49;;;;;;;49.23;17.80;;;4.00;99.90;;;;;;6214991;23;20233;-89
2022/01/18 09:05:16;;;;;;;54.53;19.07;;;4.10;99.90;;;;;;6215871;23;20210;-88
2022/01/18 09:07:43;;;;;;;32.00;15.77;;;4.10;99.90;;;;;;6214010;23;20463;-89
2022/01/18 09:10:12;;;;;;;37.70;14.47;;;4.10;99.90;;;;;;6207106;23;20200;-91
2022/01/18 09:12:40;;;;;;;41.10;16.33;;;4.10;99.90;;;;;;6212574;23;20233;-89
2022/01/18 09:15:08;;;;;;;39.53;16.37;;;4.10;99.90;;;;;;6212161;23;20174;-89
2022/01/18 09:17:36;;;;;;;26.87;12.63;;;4.20;99.90;;;;;;6212137;23;20202;-89
2022/01/18 09:20:06;;;;;;;20.57;10.07;;;4.20;99.90;;;;;;6212523;23;20177;-87
2022/01/18 09:22:35;;;;;;;15.83;10.07;;;4.20;99.90;;;;;;6211811;23;20162;-89
2022/01/18 09:25:02;;;;;;;16.27;9.00;;;4.30;99.90;;;;;;6213306;23;20185;-89
2022/01/18 09:27:29;;;;;;;17.57;9.70;;;4.30;99.90;;;;;;6212297;23;20452;-88
2022/01/18 09:29:56;;;;;;;14.23;8.90;;;4.30;99.90;;;;;;6211991;23;20170;-90
2022/01/18 09:32:23;;;;;;;20.60;10.97;;;4.40;99.90;;;;;;6210275;23;20166;-87
2022/01/18 09:34:50;;;;;;;23.50;10.33;;;4.40;99.90;;;;;;6212281;23;20170;-88
2022/01/18 09:37:18;;;;;;;15.13;8.67;;;4.40;99.90;;;;;;6212544;23;20197;-85
2022/01/18 09:39:45;;;;;;;33.63;9.60;;;4.50;99.90;;;;;;6211778;23;20170;-87
2022/01/18 09:42:12;;;;;;;37.80;9.47;;;4.50;99.90;;;;;;6211079;23;20815;-85
2022/01/18 09:44:40;;;;;;;29.63;9.53;;;4.50;99.90;;;;;;6211264;23;20170;-89
2022/01/18 09:47:08;;;;;;;18.73;7.93;;;4.50;99.90;;;;;;6211849;23;20174;-84
2022/01/18 09:49:35;;;;;;;37.10;9.47;;;4.50;99.90;;;;;;6211422;23;20492;-88
2022/01/18 09:52:02;;;;;;;19.40;8.67;;;4.50;99.90;;;;;;6212401;23;20173;-88
2022/01/18 09:54:30;;;;;;;45.90;9.93;;;4.60;99.90;;;;;;6212058;23;20430;-87
2022/01/18 09:56:57;;;;;;;15.33;8.90;;;4.60;99.90;;;;;;6211730;23;20594;-86
2022/01/18 09:59:24;;;;;;;30.77;8.97;;;4.60;99.90;;;;;;6212217;23;20173;-90
2022/01/18 10:01:51;;;;;;;47.17;10.07;;;4.70;99.90;;;;;;6212397;23;20174;-88
2022/01/18 10:04:20;;;;;;;28.27;8.83;;;4.70;99.90;;;;;;6211790;23;20166;-87
2022/01/18 10:06:49;;;;;;;20.93;8.63;;;4.70;99.90;;;;;;6212430;23;20205;-85
2022/01/18 10:09:18;;;;;;;59.87;11.40;;;4.70;99.90;;;;;;6211669;23;20175;-87
2022/01/18 10:12:05;;;;;;;52.23;11.17;;;4.70;99.90;;;;;;6211610;23;20196;-87
2022/01/18 10:14:33;;;;;;;73.57;12.57;;;4.80;99.90;;;;;;6212483;23;20162;-86
2022/01/18 10:17:00;;;;;;;49.73;11.77;;;4.70;99.90;;;;;;6211782;23;20198;-88
2022/01/18 10:19:31;;;;;;;59.27;11.97;;;4.70;99.90;;;;;;6211586;23;20170;-88
2022/01/18 10:22:08;;;;;;;35.97;11.03;;;4.80;99.90;;;;;;6212250;23;20515;-86
2022/01/18 10:24:35;;;;;;;55.77;11.97;;;4.80;99.90;;;;;;6211403;23;20157;-86
2022/01/18 10:27:04;;;;;;;69.50;11.10;;;4.80;99.90;;;;;;6212104;23;20170;-88
2022/01/18 10:29:33;;;;;;;48.27;11.07;;;4.80;99.90;;;;;;6209843;23;20181;-88
2022/01/18 10:32:09;;;;;;;69.20;11.40;;;4.90;99.90;;;;;;6211609;23;20177;-85
2022/01/18 10:37:28;;;;;;;52.43;10.83;;;4.90;99.90;;;;;;6206847;23;20224;-87
2022/01/18 10:39:58;;;;;;;48.43;12.03;;;4.90;99.90;;;;;;6209584;23;20244;-86
2022/01/18 10:42:32;;;;;;;51.40;11.63;;;4.90;99.90;;;;;;6204518;23;20189;-86
2022/01/18 10:45:03;;;;;;;37.53;11.50;;;4.90;99.90;;;;;;6209497;23;20189;-87
2022/01/18 10:47:29;;;;;;;14.90;9.70;;;5.00;99.90;;;;;;6210287;23;20182;-86
2022/01/18 10:49:57;;;;;;;34.00;11.53;;;5.00;99.90;;;;;;6208660;23;20178;-87
2022/01/18 10:52:28;;;;;;;15.73;9.00;;;5.10;99.90;;;;;;6209456;23;20186;-86
2022/01/18 10:54:57;;;;;;;41.67;12.97;;;5.10;99.90;;;;;;6211382;23;20231;-85
2022/01/18 10:57:30;;;;;;;22.57;11.60;;;5.20;99.90;;;;;;6210272;23;20284;-86
2022/01/18 10:59:59;;;;;;;27.23;11.30;;;5.30;99.90;;;;;;6211541;23;20182;-87
2022/01/18 11:02:26;;;;;;;17.73;10.67;;;5.40;99.90;;;;;;6211017;23;20186;-86
2022/01/18 11:04:55;;;;;;;22.87;10.90;;;5.40;99.90;;;;;;6211113;23;20186;-87
2022/01/18 11:07:25;;;;;;;23.53;11.20;;;5.50;99.90;;;;;;6210760;23;20177;-87
2022/01/18 11:09:52;;;;;;;29.17;11.33;;;5.50;99.90;;;;;;6211565;23;20181;-88
2022/01/18 11:12:20;;;;;;;27.40;11.77;;;5.50;99.90;;;;;;6210806;23;20197;-88
2022/01/18 11:14:59;;;;;;;19.40;10.47;;;5.60;99.90;;;;;;6210420;23;20186;-87
2022/01/18 11:17:27;;;;;;;24.00;11.27;;;5.60;99.90;;;;;;6212001;23;20201;-89
2022/01/18 11:19:57;;;;;;;19.43;10.57;;;5.60;99.90;;;;;;6213913;23;20171;-89
2022/01/18 11:22:26;;;;;;;23.00;10.87;;;5.70;99.90;;;;;;6212842;23;20205;-89
2022/01/18 11:24:55;;;;;;;24.27;11.13;;;5.70;99.90;;;;;;6212263;23;20181;-88
2022/01/18 11:27:22;;;;;;;29.53;12.53;;;5.80;99.90;;;;;;6213062;23;20257;-88
2022/01/18 11:29:50;;;;;;;24.53;12.53;;;5.80;99.90;;;;;;6211901;23;20176;-88
2022/01/18 11:32:18;;;;;;;24.37;11.93;;;5.90;99.90;;;;;;6212975;23;20574;-88
2022/01/18 11:34:55;;;;;;;28.97;12.73;;;5.90;99.90;;;;;;6213797;23;20819;-87
2022/01/18 11:37:34;;;;;;;24.00;11.63;;;6.00;99.90;;;;;;6213320;23;20201;-90
2022/01/18 11:40:04;;;;;;;29.37;12.20;;;6.10;99.90;;;;;;6214047;23;20162;-89
2022/01/18 11:42:40;;;;;;;24.43;11.83;;;6.10;99.90;;;;;;6213344;23;20177;-88
2022/01/18 11:45:39;;;;;;;34.97;13.60;;;6.10;99.90;;;;;;6212532;23;20178;-90
2022/01/18 11:48:15;;;;;;;30.40;13.23;;;6.10;99.90;;;;;;6213528;23;20297;-88
2022/01/18 11:50:44;;;;;;;26.80;12.00;;;6.20;99.90;;;;;;6212002;23;20182;-89
2022/01/18 11:53:25;;;;;;;31.00;12.17;;;6.10;99.90;;;;;;6211515;23;20319;-87
2022/01/18 11:55:54;;;;;;;26.13;12.30;;;6.20;99.90;;;;;;6212269;23;20528;-87
2022/01/18 11:58:21;;;;;;;25.27;11.33;;;6.20;99.90;;;;;;6211300;23;20634;-89
2022/01/18 12:00:52;;;;;;;25.27;12.17;;;6.30;99.90;;;;;;6212346;23;20186;-87
2022/01/18 12:03:22;;;;;;;28.40;13.37;;;6.30;99.90;;;;;;6211547;23;20185;-88
2022/01/18 12:05:49;;;;;;;32.70;13.37;;;6.40;99.90;;;;;;6212739;23;20182;-88
2022/01/18 12:08:34;;;;;;;33.20;13.43;;;6.40;99.90;;;;;;6211920;23;20513;-89
2022/01/18 12:11:03;;;;;;;31.87;13.00;;;6.40;99.90;;;;;;6212498;23;20182;-89
2022/01/18 12:13:39;;;;;;;28.63;13.57;;;6.40;99.90;;;;;;6212464;23;20182;-89
2022/01/18 12:16:17;;;;;;;37.13;13.87;;;6.40;99.90;;;;;;6207285;23;20189;-89
2022/01/18 12:18:53;;;;;;;42.53;14.60;;;6.40;99.90;;;;;;6212737;23;20198;-90
2022/01/18 12:21:24;;;;;;;30.57;11.97;;;6.40;99.90;;;;;;6212884;23;20180;-88
2022/01/18 12:23:52;;;;;;;35.53;12.73;;;6.40;99.90;;;;;;6212363;23;20545;-90
2022/01/18 12:26:39;;;;;;;27.60;12.40;;;6.40;99.90;;;;;;6213530;23;20184;-91
2022/01/18 12:34:48;;;;;;;33.93;14.73;;;6.50;99.90;;;;;;6204042;23;20240;-91
2022/01/18 12:37:45;;;;;;;32.00;13.53;;;6.50;99.90;;;;;;6213101;23;20236;-89
2022/01/18 12:40:28;;;;;;;35.63;15.63;;;6.50;99.90;;;;;;6213531;23;20216;-90
2022/01/18 12:45:54;;;;;;;37.70;15.53;;;6.60;99.90;;;;;;6212251;23;20189;-88
2022/01/18 12:48:23;;;;;;;42.53;15.57;;;6.60;99.90;;;;;;6212674;23;20602;-91
2022/01/18 12:50:56;;;;;;;33.60;14.90;;;6.60;99.90;;;;;;6212535;23;20178;-89
2022/01/18 12:53:28;;;;;;;35.13;14.70;;;6.60;99.90;;;;;;6211295;23;20263;-92
2022/01/18 12:55:57;;;;;;;44.27;15.77;;;6.60;99.90;;;;;;6211918;23;20178;-88
2022/01/18 12:58:26;;;;;;;38.73;15.43;;;6.60;99.90;;;;;;6212455;23;20524;-95
2022/01/18 13:00:55;;;;;;;33.53;13.13;;;6.60;99.90;;;;;;6213019;23;20177;-92
2022/01/18 13:03:26;;;;;;;46.23;15.20;;;6.60;99.90;;;;;;6214296;23;20226;-92
2022/01/18 13:05:55;;;;;;;36.20;15.77;;;6.70;99.90;;;;;;6213386;23;20154;-92
2022/01/18 13:08:25;;;;;;;39.13;13.90;;;6.60;99.90;;;;;;6213589;23;20177;-92
2022/01/18 13:10:54;;;;;;;34.10;13.33;;;6.60;99.90;;;;;;6214148;23;20177;-91
2022/01/18 13:13:23;;;;;;;43.50;15.03;;;6.60;99.90;;;;;;6214333;23;20177;-93
2022/01/18 13:16:05;;;;;;;37.77;14.50;;;6.60;99.90;;;;;;6216018;23;20177;-90
2022/01/18 13:24:42;;;;;;;39.73;15.43;;;6.60;99.90;;;;;;6216198;23;20535;-88
2022/01/18 13:27:13;;;;;;;50.93;16.63;;;6.60;99.90;;;;;;6227496;23;20227;-90
2022/01/18 13:29:41;;;;;;;34.83;15.37;;;6.60;99.90;;;;;;6228034;23;20170;-92
2022/01/18 13:32:16;;;;;;;44.67;16.27;;;6.60;99.90;;;;;;6221169;23;20170;-95
2022/01/18 13:34:49;;;;;;;43.07;16.13;;;6.60;99.90;;;;;;6213570;23;20162;-93
2022/01/18 13:37:18;;;;;;;45.17;16.73;;;6.60;99.90;;;;;;6215084;23;20242;-91
2022/01/18 13:39:49;;;;;;;46.47;17.50;;;6.60;99.90;;;;;;6214267;23;20303;-94
2022/01/18 13:42:18;;;;;;;43.43;16.40;;;6.60;99.90;;;;;;6213501;23;20197;-91
2022/01/18 13:45:09;;;;;;;48.13;16.03;;;6.70;99.90;;;;;;6218649;23;20471;-91
2022/01/18 13:47:43;;;;;;;42.23;17.00;;;6.60;99.90;;;;;;6237522;23;20173;-94
2022/01/18 13:50:31;;;;;;;39.07;16.93;;;6.60;99.90;;;;;;6240245;23;20173;-94
2022/01/18 13:53:01;;;;;;;53.80;18.33;;;6.70;99.90;;;;;;6222530;23;20590;-95
2022/01/18 13:55:29;;;;;;;54.60;18.83;;;6.60;99.90;;;;;;6214234;23;20173;-93
2022/01/18 13:57:58;;;;;;;39.20;16.80;;;6.60;99.90;;;;;;6242989;23;20277;-94
2022/01/18 14:00:25;;;;;;;46.73;16.30;;;6.60;99.90;;;;;;6244112;23;20169;-91
2022/01/18 14:02:52;;;;;;;43.80;16.37;;;6.60;99.90;;;;;;6243534;23;20162;-92